Guéréda Airport

TD-0013 · Ciad

Storia di METAR TD-0013 · Guéréda Airport

Di seguito sono riportati i METAR degli ultimi giorni. Seleziona un anno per sfogliare i METAR più vecchi, dall'anno 2007 in poi.

15 luglio 2024

Tempo Codice Tempo meteorologico Temp. Vista Base nuvolosa Vento METAR/SPECI
03:00
M
26 °C 7 km - 200° 200° 3 kt METAR FTTJ 150200Z 20003KT 7000 FEW026 26/25 Q1012 NOSIG
02:00
M
26 °C 7 km - Var Var 2 kt METAR FTTJ 150100Z VRB02KT 7000 FEW026 26/24 Q1012 NOSIG
01:00
M
26 °C 7 km - 360° 360° 0 kt METAR FTTJ 150000Z 00000KT 7000 FEW026 26/24 Q1012 NOSIG
00:00
M
26 °C 7 km - 140° 140° 5 kt METAR FTTJ 142300Z 14005KT 7000 FEW026 26/24 Q1012 RETS NOSIG

14 luglio 2024

Tempo Codice Tempo meteorologico Temp. Vista Base nuvolosa Vento METAR/SPECI
23:00
M
26 °C 7 km - 220° 220° 4 kt METAR FTTJ 142200Z 22004KT 7000 FEW026 26/24 Q1012 RETS NOSIG
22:00
M
26 °C 7 km - 230° 230° 5 kt METAR FTTJ 142100Z 23005KT 7000 TS FEW033 FEW040CB 26/23 Q1012 NOSIG
21:00
M
27 °C 7 km - 210° 210° 11 kt METAR FTTJ 142000Z 21011KT 7000 TS FEW033 FEW040CB 27/22 Q1013 TEMPO 2500 TSRA
20:00
M
27 °C 6 km - 140° 140° 13 kt METAR FTTJ 141900Z 14013KT 110V170 6000 TS SCT033 FEW040CB 27/21 Q1011 TEMPO 2500 TSRA
19:00
M
31 °C 7 km - 140° 140° 5 kt METAR FTTJ 141800Z 14005KT 110V170 7000 TS SCT033 FEW040CB 31/22 Q1011 TEMPO 10020KT 2500 TSRA
18:00
V
32 °C 8 km - 170° 170° 4 kt METAR FTTJ 141700Z 17004KT 120V200 8000 SCT033 FEW040CB 32/23 Q1010 TEMPO TS
17:00
V
35 °C 8 km - Var Var 2 kt METAR FTTJ 141600Z VRB02KT 8000 SCT033 FEW040CB 35/23 Q1009 NOSIG
16:00
V
34 °C 8 km - Var Var 2 kt METAR FTTJ 141500Z VRB02KT 8000 SCT033 FEW040CB 34/22 Q1009 TEMPO TS
15:00
V
35 °C 8 km - Var Var 3 kt METAR FTTJ 141400Z VRB03KT 8000 SCT033 FEW040CB 35/23 Q1010 TEMPO TS
14:00
V
34 °C 8 km - Var Var 3 kt METAR FTTJ 141300Z VRB03KT 8000 SCT033TCU 34/23 Q1011 NOSIG
13:00
V
33 °C 8 km 3.300 ft Var Var 2 kt METAR FTTJ 141200Z VRB02KT 8000 BKN033TCU 33/24 Q1012 NOSIG
12:00
V
33 °C 8 km - Var Var 2 kt METAR FTTJ 141100Z VRB02KT 8000 SCT033 33/24 Q1013 NOSIG
11:00
V
31 °C 8 km - 230° 230° 4 kt METAR FTTJ 141000Z 23004KT 180V280 8000 FEW033 31/23 Q1014 NOSIG
10:00
V
31 °C 8 km - 240° 240° 4 kt METAR FTTJ 140900Z 24004KT 180V290 8000 FEW033 31/24 Q1014 NOSIG
09:00
V
29 °C 8 km - 240° 240° 6 kt METAR FTTJ 140800Z 24006KT 210V280 8000 NSC 29/23 Q1014 NOSIG
08:00
V
27 °C 8 km - 250° 250° 5 kt METAR FTTJ 140700Z 25005KT 8000 NSC 27/24 Q1013 NOSIG
07:00
V
25 °C 8 km - 240° 240° 2 kt METAR FTTJ 140600Z 24002KT 8000 FEW026 25/24 Q1013 NOSIG
06:00
V
24 °C 8 km - 230° 230° 4 kt METAR FTTJ 140500Z 23004KT 8000 FEW026 24/24 Q1012 NOSIG
05:00
V
24 °C 8 km - 090° 090° 1 kt METAR FTTJ 140400Z 09001KT 8000 FEW026 24/24 Q1011 NOSIG
04:00
V
25 °C 8 km - Var Var 2 kt METAR FTTJ 140300Z VRB02KT 8000 FEW026 25/24 Q1011 NOSIG
03:00
V
25 °C 8 km - Var Var 2 kt METAR FTTJ 140200Z VRB02KT 8000 FEW026 25/25 Q1011 NOSIG
02:00
V
25 °C 8 km - Var Var 2 kt METAR FTTJ 140100Z VRB02KT 8000 FEW026 25/25 Q1011 NOSIG
01:00
V
25 °C 8 km - Var Var 3 kt METAR FTTJ 140000Z VRB03KT 8000 FEW026 25/24 Q1012 NOSIG
00:00
M
26 °C 7 km - Var Var 3 kt METAR FTTJ 132300Z VRB03KT 7000 FEW020 26/24 Q1012 NOSIG

13 luglio 2024

Tempo Codice Tempo meteorologico Temp. Vista Base nuvolosa Vento METAR/SPECI
23:00
M
26 °C 7 km - Var Var 2 kt METAR FTTJ 132200Z VRB02KT 7000 FEW020 26/24 Q1013 NOSIG
22:00
M
26 °C 7 km - 310° 310° 4 kt METAR FTTJ 132100Z 31004KT 7000 FEW020 26/23 Q1012 NOSIG
21:00
M
27 °C 7 km - 290° 290° 4 kt METAR FTTJ 132000Z 29004KT 270V330 7000 FEW020 27/24 Q1012 RETS NOSIG
20:00
V
28 °C 8 km - 360° 360° 0 kt METAR FTTJ 131900Z 00000KT 8000 TS FEW026 FEW040CB 28/23 Q1010 NOSIG
19:00
V
28 °C 8 km - 300° 300° 4 kt METAR FTTJ 131800Z 30004KT 8000 TS FEW026 FEW040CB 28/24 Q1010 NOSIG
18:00
V
30 °C 8 km - 310° 310° 5 kt METAR FTTJ 131700Z 31005KT 280V350 8000 FEW030 FEW040CB 30/24 Q1010 TEMPO TS
17:00
V
31 °C 8 km - 320° 320° 4 kt METAR FTTJ 131600Z 32004KT 280V010 8000 SCT030 31/24 Q1010 NOSIG
16:00
V
31 °C 8 km - 310° 310° 4 kt METAR FTTJ 131500Z 31004KT 270V010 8000 SCT030 31/24 Q1010 NOSIG
15:00
V
31 °C 8 km - 300° 300° 6 kt METAR FTTJ 131400Z 30006KT 270V330 8000 SCT030 31/25 Q1011 NOSIG
14:00
V
30 °C 8 km - 270° 270° 5 kt METAR FTTJ 131300Z 27005KT 240V310 8000 SCT030 30/24 Q1011 NOSIG
13:00
V
30 °C 8 km - 230° 230° 6 kt METAR FTTJ 131200Z 23006KT 180V270 8000 SCT030 30/25 Q1012 NOSIG
12:00
M
29 °C 7 km - 220° 220° 7 kt METAR FTTJ 131100Z 22007KT 190V260 7000 FEW026 29/25 Q1012 NOSIG
10:00
M
26 °C 7 km - 200° 200° 7 kt METAR FTTJ 130900Z 20007KT 170V230 7000 SCT026 26/23 Q1013 NOSIG
09:00
M
26 °C 6 km - 200° 200° 7 kt METAR FTTJ 130800Z 20007KT 6000 FEW026 26/24 Q1013 NOSIG
08:00
M
24 °C 6 km - 210° 210° 6 kt METAR FTTJ 130700Z 21006KT 6000 FEW026 24/24 Q1013 NOSIG
07:00
M
24 °C 6 km - 210° 210° 6 kt METAR FTTJ 130600Z 21006KT 6000 FEW026 24/24 Q1013 NOSIG
06:00
V
24 °C 8 km - 200° 200° 3 kt METAR FTTJ 130500Z 20003KT 8000 FEW026 24/24 Q1012 NOSIG
05:00
V
24 °C 8 km - Var Var 2 kt METAR FTTJ 130400Z VRB02KT 8000 FEW026 24/24 Q1012 NOSIG
03:00
V
24 °C 8 km - Var Var 2 kt METAR FTTJ 130200Z VRB02KT 8000 FEW026 24/24 Q1012 NOSIG
02:00
V
24 °C 8 km - Var Var 1 kt METAR FTTJ 130100Z VRB01KT 8000 FEW026 24/24 Q1012 NOSIG
00:00
V
24 °C 8 km - 020° 020° 4 kt METAR FTTJ 122300Z 02004KT 8000 FEW016 FEW026CB 24/23 Q1012 NOSIG

12 luglio 2024

Tempo Codice Tempo meteorologico Temp. Vista Base nuvolosa Vento METAR/SPECI
23:00
V
23 °C 8 km - 060° 060° 5 kt METAR FTTJ 122200Z 06005KT 8000 FEW016 FEW026CB 23/23 Q1013 NOSIG
21:00
V
23 °C 8 km - Var Var 3 kt METAR FTTJ 122000Z VRB03KT 8000 FEW016 FEW026CB 23/23 Q1012 TEMPO TS
20:00
V
23 °C 8 km - 220° 220° 6 kt METAR FTTJ 121900Z 22006KT 8000 FEW016 FEW026CB 23/23 Q1011 TEMPO TS
19:00
V
24 °C 8 km - 210° 210° 8 kt METAR FTTJ 121800Z 21008KT 8000 FEW016 24/23 Q1010 NOSIG
18:00
V
24 °C 8 km - 200° 200° 11 kt METAR FTTJ 121700Z 20011KT 8000 SCT016 SCT026 FEW040CB 24/23 Q1010 NOSIG
17:00
V
24 °C 8 km - 200° 200° 11 kt METAR FTTJ 121600Z 20011KT 8000 SCT016 SCT026 FEW040CB 24/24 Q1011 RETS NOSIG
16:00
M
24 °C 7 km - 210° 210° 11 kt METAR FTTJ 121500Z 21011KT 7000 TS FEW020 SCT030 FEW040CB 24/23 Q1011 RERA BECMG NSW
15:00
I
25 °C 1,6 km - 110° 110° 16 - 26 kt METAR FTTJ 121400Z 11016G26KT 070V160 1600 TSRA SCT013 SCT040CB 25/23 Q1013 TEMPO 0800 +TSRA
14:00
M
31 °C 6 km 3.000 ft 250° 250° 10 kt METAR FTTJ 121300Z 25010KT 210V270 6000 TS BKN030 SCT040CB 31/24 Q1010 TEMPO 18016G30KT 3000 TSRA
13:00
V
33 °C 8 km - 290° 290° 9 kt METAR FTTJ 121200Z 29009KT 240V330 8000 TS SCT033 FEW040CB 33/24 Q1010 TEMPO 3000 TSRA
12:00
V
32 °C 8 km - 300° 300° 8 kt METAR FTTJ 121100Z 30008KT 8000 SCT033 FEW040CB 32/25 Q1011 TEMPO TS
11:00
V
31 °C 8 km - 260° 260° 8 kt METAR FTTJ 121000Z 26008KT 230V290 8000 SCT033 31/24 Q1012 NOSIG
10:00
M
30 °C 6 km - 240° 240° 9 kt METAR FTTJ 120900Z 24009KT 6000 FEW033 30/25 Q1013 NOSIG
09:00
M
29 °C 6 km - 240° 240° 8 kt METAR FTTJ 120800Z 24008KT 6000 SCT033 29/25 Q1012 NOSIG
08:00
M
28 °C 6 km - 250° 250° 5 kt METAR FTTJ 120700Z 25005KT 220V280 6000 SCT026 28/25 Q1013 NOSIG
07:00
M
26 °C 6 km - 050° 050° 3 kt METAR FTTJ 120600Z 05003KT 6000 SCT026 26/26 Q1012 NOSIG
Segnala modifiche